Big Bear Station Historical Data
Daily Summary for February 3, 2019 Units:  Both    English   Metric
Next Day »
Daily Weekly Monthly Yearly Custom
  High: Low: Average:
Temperature: 39.2 °F /  4 °C 24.4 °F /  -4.2 °C 31.2 °F /  -0.4 °C
Dew Point: 35.7 °F /  2.1 °C 22.1 °F /  -5.5 °C 29.6 °F /  -1.3 °C
Humidity: 98% 87% 94%
Wind Speed: 3.7mph /  6km/h - 0.2mph /  0.3km/h
Wind Gust: -999.0mph /  -1607.7km/h - -
Wind- - WSW
Pressure: 23.30 in /  788.9 hPa 23.22 in /  786.2 hPa -
Precipitation: 0.01 in /  0.25 mm    
Historical Graphs
 
 
Tabular Data for February 3, 2019
Time Temperature Dew Point Pressure Wind Wind Speed Wind Gust Humidity Rainfall Rate (Hourly)
00:04 28.8 °F /  -1.8 °C 28.1 °F /  -2.2 °C 23.23in /  786.6hPa Calm   -999.0mph /  -1607.7km/h 97% 0.00in /  0mm
00:19 28.8 °F /  -1.8 °C 28.1 °F /  -2.2 °C 23.23in /  786.6hPa Calm   -999.0mph /  -1607.7km/h 97% 0.00in /  0mm
00:34 28.9 °F /  -1.7 °C 28.2 °F /  -2.1 °C 23.23in /  786.6hPa Calm   -999.0mph /  -1607.7km/h 97% 0.00in /  0mm
00:49 28.9 °F /  -1.7 °C 28.2 °F /  -2.1 °C 23.22in /  786.2hPa Calm   -999.0mph /  -1607.7km/h 97% 0.00in /  0mm
01:05 28.9 °F /  -1.7 °C 28.2 °F /  -2.1 °C 23.22in /  786.2hPa Calm   -999.0mph /  -1607.7km/h 97% 0.00in /  0mm
01:20 28.8 °F /  -1.8 °C 28.1 °F /  -2.2 °C 23.23in /  786.6hPa Calm   -999.0mph /  -1607.7km/h 97% 0.00in /  0mm
01:35 28.6 °F /  -1.9 °C 27.9 °F /  -2.3 °C 23.22in /  786.2hPa Calm   -999.0mph /  -1607.7km/h 97% 0.00in /  0mm
01:51 28.4 °F /  -2 °C 27.7 °F /  -2.4 °C 23.23in /  786.6hPa Calm   -999.0mph /  -1607.7km/h 97% 0.00in /  0mm
02:06 28.4 °F /  -2 °C 27.7 °F /  -2.4 °C 23.23in /  786.6hPa Calm   -999.0mph /  -1607.7km/h 97% 0.00in /  0mm
02:21 28.4 °F /  -2 °C 27.7 °F /  -2.4 °C 23.23in /  786.6hPa Calm   -999.0mph /  -1607.7km/h 97% 0.00in /  0mm
02:37 28.4 °F /  -2 °C 27.7 °F /  -2.4 °C 23.23in /  786.6hPa Calm   -999.0mph /  -1607.7km/h 97% 0.00in /  0mm
02:52 28.0 °F /  -2.2 °C 27.3 °F /  -2.6 °C 23.24in /  786.9hPa Calm   -999.0mph /  -1607.7km/h 97% 0.00in /  0mm
03:07 27.5 °F /  -2.5 °C 26.5 °F /  -3.1 °C 23.24in /  786.9hPa Calm   -999.0mph /  -1607.7km/h 96% 0.00in /  0mm
03:22 26.4 °F /  -3.1 °C 24.9 °F /  -3.9 °C 23.24in /  786.9hPa Calm   -999.0mph /  -1607.7km/h 94% 0.00in /  0mm
03:37 25.9 °F /  -3.4 °C 24.2 °F /  -4.3 °C 23.23in /  786.6hPa Calm   -999.0mph /  -1607.7km/h 93% 0.00in /  0mm
03:53 25.3 °F /  -3.7 °C 23.0 °F /  -5 °C 23.23in /  786.6hPa Calm   -999.0mph /  -1607.7km/h 91% 0.00in /  0mm
04:08 25.0 °F /  -3.9 °C 22.7 °F /  -5.2 °C 23.23in /  786.6hPa Calm   -999.0mph /  -1607.7km/h 91% 0.00in /  0mm
04:23 24.8 °F /  -4 °C 22.5 °F /  -5.3 °C 23.22in /  786.2hPa Calm   -999.0mph /  -1607.7km/h 91% 0.00in /  0mm
04:39 24.6 °F /  -4.1 °C 22.3 °F /  -5.4 °C 23.23in /  786.6hPa Calm   -999.0mph /  -1607.7km/h 91% 0.00in /  0mm
04:54 24.4 °F /  -4.2 °C 22.2 °F /  -5.4 °C 23.23in /  786.6hPa Calm   -999.0mph /  -1607.7km/h 91% 0.00in /  0mm
05:09 24.4 °F /  -4.2 °C 22.2 °F /  -5.4 °C 23.23in /  786.6hPa Calm   -999.0mph /  -1607.7km/h 91% 0.00in /  0mm
05:24 24.6 °F /  -4.1 °C 22.1 °F /  -5.5 °C 23.23in /  786.6hPa Calm   -999.0mph /  -1607.7km/h 90% 0.00in /  0mm
05:40 24.4 °F /  -4.2 °C 22.4 °F /  -5.3 °C 23.24in /  786.9hPa Calm   -999.0mph /  -1607.7km/h 92% 0.00in /  0mm
05:55 24.6 °F /  -4.1 °C 22.9 °F /  -5.1 °C 23.24in /  786.9hPa Calm   -999.0mph /  -1607.7km/h 93% 0.00in /  0mm
06:10 25.0 °F /  -3.9 °C 23.5 °F /  -4.7 °C 23.24in /  786.9hPa Calm   -999.0mph /  -1607.7km/h 94% 0.00in /  0mm
06:25 25.5 °F /  -3.6 °C 24.3 °F /  -4.3 °C 23.25in /  787.2hPa Calm   -999.0mph /  -1607.7km/h 95% 0.00in /  0mm
06:41 25.9 °F /  -3.4 °C 24.9 °F /  -3.9 °C 23.26in /  787.6hPa Calm   -999.0mph /  -1607.7km/h 96% 0.00in /  0mm
06:56 26.1 °F /  -3.3 °C 25.1 °F /  -3.8 °C 23.27in /  787.9hPa Calm   -999.0mph /  -1607.7km/h 96% 0.00in /  0mm
07:11 26.4 °F /  -3.1 °C 25.4 °F /  -3.7 °C 23.27in /  787.9hPa Calm   -999.0mph /  -1607.7km/h 96% 0.00in /  0mm
07:26 27.0 °F /  -2.8 °C 26.0 °F /  -3.3 °C 23.27in /  787.9hPa Calm   -999.0mph /  -1607.7km/h 96% 0.00in /  0mm
07:41 27.5 °F /  -2.5 °C 26.5 °F /  -3.1 °C 23.27in /  787.9hPa Calm   -999.0mph /  -1607.7km/h 96% 0.00in /  0mm
07:57 28.4 °F /  -2 °C 27.2 °F /  -2.7 °C 23.28in /  788.3hPa Calm   -999.0mph /  -1607.7km/h 95% 0.00in /  0mm
08:12 29.3 °F /  -1.5 °C 28.0 °F /  -2.2 °C 23.28in /  788.3hPa Calm   -999.0mph /  -1607.7km/h 95% 0.00in /  0mm
08:27 29.8 °F /  -1.2 °C 28.3 °F /  -2.1 °C 23.28in /  788.3hPa Calm   -999.0mph /  -1607.7km/h 94% 0.00in /  0mm
08:42 30.7 °F /  -0.7 °C 28.9 °F /  -1.7 °C 23.28in /  788.3hPa Calm   -999.0mph /  -1607.7km/h 93% 0.00in /  0mm
08:57 31.3 °F /  -0.4 °C 29.5 °F /  -1.4 °C 23.28in /  788.3hPa Calm   -999.0mph /  -1607.7km/h 93% 0.00in /  0mm
09:13 32.9 °F /  0.5 °C 30.6 °F /  -0.8 °C 23.28in /  788.3hPa Calm   -999.0mph /  -1607.7km/h 91% 0.00in /  0mm
09:28 33.3 °F /  0.7 °C 31.0 °F /  -0.6 °C 23.29in /  788.6hPa Calm   -999.0mph /  -1607.7km/h 91% 0.00in /  0mm
09:43 33.6 °F /  0.9 °C 31.3 °F /  -0.4 °C 23.29in /  788.6hPa Calm   -999.0mph /  -1607.7km/h 91% 0.00in /  0mm
09:58 33.4 °F /  0.8 °C 31.3 °F /  -0.4 °C 23.28in /  788.3hPa Calm   -999.0mph /  -1607.7km/h 92% 0.00in /  0mm
10:13 34.0 °F /  1.1 °C 31.7 °F /  -0.2 °C 23.29in /  788.6hPa Calm   -999.0mph /  -1607.7km/h 91% 0.00in /  0mm
10:29 36.0 °F /  2.2 °C 32.8 °F /  0.4 °C 23.30in /  788.9hPa Calm   -999.0mph /  -1607.7km/h 88% 0.00in /  0mm
10:44 36.1 °F /  2.3 °C 32.9 °F /  0.5 °C 23.30in /  788.9hPa Calm   -999.0mph /  -1607.7km/h 88% 0.00in /  0mm
11:00 37.0 °F /  2.8 °C 33.5 °F /  0.8 °C 23.30in /  788.9hPa Calm   -999.0mph /  -1607.7km/h 87% 0.00in /  0mm
11:15 36.9 °F /  2.7 °C 33.4 °F /  0.8 °C 23.29in /  788.6hPa Calm   -999.0mph /  -1607.7km/h 87% 0.00in /  0mm
11:30 36.3 °F /  2.4 °C 33.4 °F /  0.8 °C 23.29in /  788.6hPa Calm   -999.0mph /  -1607.7km/h 89% 0.00in /  0mm
11:45 36.1 °F /  2.3 °C 33.5 °F /  0.8 °C 23.29in /  788.6hPa Calm   -999.0mph /  -1607.7km/h 90% 0.00in /  0mm
12:00 36.1 °F /  2.3 °C 33.2 °F /  0.7 °C 23.28in /  788.3hPa Calm   -999.0mph /  -1607.7km/h 89% 0.00in /  0mm
12:16 39.0 °F /  3.9 °C 35.5 °F /  1.9 °C 23.28in /  788.3hPa Calm   -999.0mph /  -1607.7km/h 87% 0.00in /  0mm
12:31 39.2 °F /  4 °C 35.7 °F /  2.1 °C 23.28in /  788.3hPa Calm   -999.0mph /  -1607.7km/h 87% 0.00in /  0mm
12:46 38.8 °F /  3.8 °C 35.3 °F /  1.8 °C 23.27in /  787.9hPa Calm   -999.0mph /  -1607.7km/h 87% 0.00in /  0mm
13:01 38.3 °F /  3.5 °C 34.8 °F /  1.6 °C 23.27in /  787.9hPa Calm   -999.0mph /  -1607.7km/h 87% 0.00in /  0mm
13:17 37.8 °F /  3.2 °C 34.6 °F /  1.4 °C 23.26in /  787.6hPa Calm   -999.0mph /  -1607.7km/h 88% 0.00in /  0mm
13:32 38.1 °F /  3.4 °C 34.6 °F /  1.4 °C 23.26in /  787.6hPa NNW 3.7mph /  6km/h -999.0mph /  -1607.7km/h 87% 0.00in /  0mm
13:47 37.9 °F /  3.3 °C 34.9 °F /  1.6 °C 23.25in /  787.2hPa Calm   -999.0mph /  -1607.7km/h 89% 0.00in /  0mm
14:02 37.8 °F /  3.2 °C 34.6 °F /  1.4 °C 23.25in /  787.2hPa Calm   -999.0mph /  -1607.7km/h 88% 0.00in /  0mm
14:17 37.2 °F /  2.9 °C 34.3 °F /  1.3 °C 23.25in /  787.2hPa SE 3.2mph /  5.1km/h -999.0mph /  -1607.7km/h 89% 0.00in /  0mm
14:33 37.0 °F /  2.8 °C 34.1 °F /  1.2 °C 23.25in /  787.2hPa Calm   -999.0mph /  -1607.7km/h 89% 0.00in /  0mm
14:48 36.3 °F /  2.4 °C 33.6 °F /  0.9 °C 23.25in /  787.2hPa Calm   -999.0mph /  -1607.7km/h 90% 0.00in /  0mm
15:03 36.0 °F /  2.2 °C 33.4 °F /  0.8 °C 23.25in /  787.2hPa Calm   -999.0mph /  -1607.7km/h 90% 0.00in /  0mm
15:18 35.2 °F /  1.8 °C 32.8 °F /  0.4 °C 23.25in /  787.2hPa South 1.1mph /  1.8km/h -999.0mph /  -1607.7km/h 91% 0.00in /  0mm
15:33 34.7 °F /  1.5 °C 32.6 °F /  0.3 °C 23.25in /  787.2hPa Calm   -999.0mph /  -1607.7km/h 92% 0.00in /  0mm
15:49 34.7 °F /  1.5 °C 32.6 °F /  0.3 °C 23.25in /  787.2hPa Calm   -999.0mph /  -1607.7km/h 92% 0.00in /  0mm
16:04 34.5 °F /  1.4 °C 32.4 °F /  0.2 °C 23.26in /  787.6hPa Calm   -999.0mph /  -1607.7km/h 92% 0.00in /  0mm
16:19 34.0 °F /  1.1 °C 32.2 °F /  0.1 °C 23.25in /  787.2hPa Calm   -999.0mph /  -1607.7km/h 93% 0.00in /  0mm
16:34 33.3 °F /  0.7 °C 31.5 °F /  -0.3 °C 23.25in /  787.2hPa Calm   -999.0mph /  -1607.7km/h 93% 0.00in /  0mm
16:50 32.7 °F /  0.4 °C 31.2 °F /  -0.4 °C 23.25in /  787.2hPa Calm   -999.0mph /  -1607.7km/h 94% 0.00in /  0mm
17:05 32.5 °F /  0.3 °C 31.2 °F /  -0.4 °C 23.25in /  787.2hPa Calm   -999.0mph /  -1607.7km/h 95% 0.00in /  0mm
17:20 32.2 °F /  0.1 °C 31.2 °F /  -0.4 °C 23.25in /  787.2hPa Calm   -999.0mph /  -1607.7km/h 96% 0.00in /  0mm
17:35 32.2 °F /  0.1 °C 31.2 °F /  -0.4 °C 23.25in /  787.2hPa Calm   -999.0mph /  -1607.7km/h 96% 0.00in /  0mm
17:50 32.0 °F /  0 °C 31.0 °F /  -0.6 °C 23.25in /  787.2hPa Calm   -999.0mph /  -1607.7km/h 96% 0.00in /  0mm
18:05 32.0 °F /  0 °C 31.0 °F /  -0.6 °C 23.26in /  787.6hPa NW 2.7mph /  4.3km/h -999.0mph /  -1607.7km/h 96% 0.00in /  0mm
18:21 31.8 °F /  -0.1 °C 31.0 °F /  -0.6 °C 23.26in /  787.6hPa Calm   -999.0mph /  -1607.7km/h 97% 0.00in /  0mm
18:36 31.8 °F /  -0.1 °C 31.0 °F /  -0.6 °C 23.26in /  787.6hPa NW 3.2mph /  5.1km/h -999.0mph /  -1607.7km/h 97% 0.00in /  0mm
18:51 31.8 °F /  -0.1 °C 31.3 °F /  -0.4 °C 23.26in /  787.6hPa Calm   -999.0mph /  -1607.7km/h 98% 0.00in /  0mm
19:07 31.6 °F /  -0.2 °C 31.1 °F /  -0.5 °C 23.26in /  787.6hPa Calm   -999.0mph /  -1607.7km/h 98% 0.00in /  0mm
19:22 31.5 °F /  -0.3 °C 31.0 °F /  -0.6 °C 23.26in /  787.6hPa Calm   -999.0mph /  -1607.7km/h 98% 0.00in /  0mm
19:37 31.5 °F /  -0.3 °C 31.0 °F /  -0.6 °C 23.26in /  787.6hPa Calm   -999.0mph /  -1607.7km/h 98% 0.00in /  0mm
19:52 31.6 °F /  -0.2 °C 31.1 °F /  -0.5 °C 23.25in /  787.2hPa Calm   -999.0mph /  -1607.7km/h 98% 0.00in /  0mm
20:07 31.6 °F /  -0.2 °C 31.1 °F /  -0.5 °C 23.25in /  787.2hPa Calm   -999.0mph /  -1607.7km/h 98% 0.00in /  0mm
20:23 31.6 °F /  -0.2 °C 31.1 °F /  -0.5 °C 23.25in /  787.2hPa Calm   -999.0mph /  -1607.7km/h 98% 0.00in /  0mm
20:38 31.6 °F /  -0.2 °C 31.1 °F /  -0.5 °C 23.25in /  787.2hPa Calm   -999.0mph /  -1607.7km/h 98% 0.00in /  0mm
20:53 31.1 °F /  -0.5 °C 30.6 °F /  -0.8 °C 23.25in /  787.2hPa Calm   -999.0mph /  -1607.7km/h 98% 0.00in /  0mm
21:08 31.1 °F /  -0.5 °C 30.6 °F /  -0.8 °C 23.25in /  787.2hPa Calm   -999.0mph /  -1607.7km/h 98% 0.00in /  0mm
21:23 31.1 °F /  -0.5 °C 30.6 °F /  -0.8 °C 23.25in /  787.2hPa Calm   -999.0mph /  -1607.7km/h 98% 0.00in /  0mm
21:39 30.7 °F /  -0.7 °C 30.2 °F /  -1 °C 23.25in /  787.2hPa NW 1.7mph /  2.7km/h -999.0mph /  -1607.7km/h 98% 0.00in /  0mm
21:54 30.6 °F /  -0.8 °C 29.9 °F /  -1.2 °C 23.25in /  787.2hPa NW 2.7mph /  4.3km/h -999.0mph /  -1607.7km/h 97% 0.00in /  0mm
22:09 30.4 °F /  -0.9 °C 29.7 °F /  -1.3 °C 23.25in /  787.2hPa Calm   -999.0mph /  -1607.7km/h 97% 0.00in /  0mm
22:24 30.4 °F /  -0.9 °C 29.7 °F /  -1.3 °C 23.25in /  787.2hPa Calm   -999.0mph /  -1607.7km/h 97% 0.00in /  0mm
22:40 30.0 °F /  -1.1 °C 29.3 °F /  -1.5 °C 23.25in /  787.2hPa Calm   -999.0mph /  -1607.7km/h 97% 0.00in /  0mm
22:55 30.0 °F /  -1.1 °C 29.3 °F /  -1.5 °C 23.26in /  787.6hPa Calm   -999.0mph /  -1607.7km/h 97% 0.00in /  0mm
23:10 29.8 °F /  -1.2 °C 29.1 °F /  -1.6 °C 23.25in /  787.2hPa Calm   -999.0mph /  -1607.7km/h 97% 0.00in /  0mm
23:25 30.0 °F /  -1.1 °C 29.3 °F /  -1.5 °C 23.25in /  787.2hPa Calm   -999.0mph /  -1607.7km/h 97% 0.00in /  0mm
23:40 30.4 °F /  -0.9 °C 29.7 °F /  -1.3 °C 23.25in /  787.2hPa Calm   -999.0mph /  -1607.7km/h 97% 0.00in /  0mm
23:56 30.6 °F /  -0.8 °C 29.9 °F /  -1.2 °C 23.25in /  787.2hPa East 2.7mph /  4.3km/h -999.0mph /  -1607.7km/h 97% 0.00in /  0mm
Big Bear CA Weather